Merry Christmas and Happy New Year!

 

Sretan Božić i Nova godina!

 

Poštovani korisnici,

Od 20. svibnja 2021. u 02:00 UTC HKZP će umjesto GAFOR-a početi izdavati eGAFOR. eGAFOR je nova prognoza meteorološkog utjecaja na rutama za generalnu avijaciju, koja će se simultano, koordinirano i harmonizirano proizvoditi u FIR-ovima Zagreb, Beograd, Bratislava, Bukurešt, Budimpešta, Ljubljana i Sarajevo. Više o eGAFOR-u možete vidjeti na ovom linku.

Dear users,
Starting from May 20th 2021 at 02:00 UTC CCL will issue eGAFOR instead of GAFOR. eGAFOR is a new forecast of meteorological impact on general aviation routes that will be produced simultaneously and coordinated between FIRs Zagreb, Belgrade, Bratislava, Bucharest, Budapest, Ljubljana and Sarajevo. You can find out more about eGAFOR here.

METAR

METAR LDZA 120230Z 27005KT 240V300 CAVOK 14/12 Q1006 NOSIG =
METAR LDSP 120230Z AUTO VRB01KT 9999 BKN040/// BKN046/// OVC057/// 16/14 Q1008 TEMPO TSRA FEW030CB=
METAR LDDU 120230Z 14016KT 9999 FEW020 18/14 Q1009 NOSIG =
METAR LDZD 120230Z VRB01KT 9999 FEW030 BKN040 14/14 Q1008 =
METAR LDPL 120230Z 25010KT 9000 RA BKN007 14/13 Q1007=
METAR LDOS 120230Z 27003KT 230V360 CAVOK 12/09 Q1006=
METAR COR LDRI 120230Z 16004KT 9999 -RA OVC030 15/14 Q1007=

TAF

TAF LDZA 112325Z 1200/1300 22006KT CAVOK
                 TX18/1212Z TN12/1223Z
    PROB40 TEMPO 1201/1207 RA BKN014 BKN030
    PROB40 TEMPO 1210/1219 4000 TSRA FEW040CB=         
TAF LDSP 112325Z 1200/1300 35005KT 9999 FEW040
                 TX21/1213Z TN15/1204Z
           TEMPO 1200/1204 RA
    PROB40 TEMPO 1200/1209 TSRA FEW030CB BKN035
           BECMG 1208/1210 23010KT
           BECMG 1215/1217 24005KT=         
TAF LDDU 112325Z 1200/1300 13012KT CAVOK
                 TX20/1211Z TN15/1223Z
    PROB30 TEMPO 1206/1209 -TSRA FEW020CB BKN023
    PROB30 TEMPO 1209/1213 FEW020CB
           BECMG 1211/1213 22008KT
           BECMG 1219/1221 07008KT=         
TAF LDZD 112325Z 1200/1300 24007KT 9999 BKN040
                 TX20/1213Z TN13/1204Z
           TEMPO 1200/1206 4000 RA
    PROB40 TEMPO 1200/1206 24012KT TSRA FEW020CB BKN030
    PROB40 TEMPO 1209/1214 FEW030CB=         
TAF LDPL 112325Z 1200/1300 09008KT 9999 BKN040
                 TX18/1212Z TN13/1204Z
    PROB40 TEMPO 1200/1204 VRB15KT 4000 TSRA BKN008 SCT025CB OVC030
           BECMG 1205/1207 25006KT
    PROB40 TEMPO 1209/1218 SHRA FEW030TCU SCT040
    PROB30 TEMPO 1220/1300 SHRA BKN008 FEW015TCU=         
TAF LDOS 112325Z 1200/1300 30008KT CAVOK
                 TX20/1220Z TN14/1223Z
           TEMPO 1208/1213 RA
    PROB30 TEMPO 1211/1215 TSRA FEW020CB BKN035
           BECMG 1212/1214 20006KT=         
TAF LDRI 112325Z 1200/1300 14005KT 9999 BKN035
                 TX17/1212Z TN12/1223Z
           TEMPO 1200/1212 4000 RA BKN012
    PROB40 TEMPO 1200/1216 TSRA FEW020CB OVC025
    PROB30 TEMPO 1220/1300 4000 RA BKN014=         
TAF AMD LDSB 111633Z 1116/1212 CNL=         
TAF LDLO NIL=

SIGMET

LDZO SIGMET T01 VALID 120112/120300 LDZA-
LDZO ZAGREB FIR EMBD TS OBS WI N4451 E01544 - N4537 E01434 - N4453
E01340 - N4407 E01436 - N4307 E01629 - N4317 E01732 - N4451 E01544
TOP FL320 STNR NC=

AIRMET

If you cannot log in with your user account, please contact stjepko.jancijev@crocontrol.hr.
Specifically, the website deactivates user accounts that have not been used for more than 365 days, so they must be reactivated.
 

         

      Politika MET podataka      

 

Ukoliko se svojim korisničkim računom ne možete logirati na web stranicu, molim vas da se obratite na stjepko.jancijev@crocontrol.hr.

Naime, web stranica deaktivira korisničke račune koji nisu korišteni više od 365 dana te ih je potrebno ponovno aktivirati.